Time;durP1;ratioP1;P1;durP2;ratioP2;P2;SDS_P1;SDS_P2;PMS_P1;PMS_P2;Temp;Humidity;BMP_temperature;BMP_pressure;BME280_temperature;BME280_humidity;BME280_pressure;Samples;Min_cycle;Max_cycle;Signal;HPM_P1;HPM_P2
2023/01/28 00:00:06;;;;;;;10.45;7.15;;;3.40;99.90;;;;;;5131889;28;20079;-74
2023/01/28 00:02:33;;;;;;;10.90;7.05;;;3.40;99.90;;;;;;5134522;27;20057;-74
2023/01/28 00:04:59;;;;;;;10.93;7.70;;;3.40;99.90;;;;;;5124668;28;20387;-74
2023/01/28 00:07:24;;;;;;;9.82;6.90;;;3.40;99.90;;;;;;5120541;27;20047;-74
2023/01/28 00:09:50;;;;;;;8.60;7.18;;;3.40;99.90;;;;;;5153314;27;20456;-75
2023/01/28 00:12:16;;;;;;;8.60;7.07;;;3.50;99.90;;;;;;5153453;27;20038;-74
2023/01/28 00:14:42;;;;;;;8.57;6.78;;;3.40;99.90;;;;;;5153517;27;20035;-74
2023/01/28 00:17:07;;;;;;;8.35;7.00;;;3.50;99.90;;;;;;5153573;27;20502;-74
2023/01/28 00:19:33;;;;;;;7.38;6.53;;;3.40;99.90;;;;;;5134780;27;20035;-74
2023/01/28 00:21:59;;;;;;;8.20;6.80;;;3.40;99.90;;;;;;5135051;27;20229;-75
2023/01/28 00:24:24;;;;;;;8.38;7.13;;;3.40;99.90;;;;;;5147088;27;20031;-74
2023/01/28 00:26:50;;;;;;;9.13;7.05;;;3.40;99.90;;;;;;5135259;27;20450;-74
2023/01/28 00:29:16;;;;;;;8.35;6.13;;;3.40;99.90;;;;;;5136450;27;20031;-74
2023/01/28 00:31:42;;;;;;;7.28;6.25;;;3.40;99.90;;;;;;5136719;27;20092;-74
2023/01/28 00:34:08;;;;;;;8.50;6.70;;;3.40;99.90;;;;;;5136512;27;20506;-74
2023/01/28 00:36:38;;;;;;;7.95;6.82;;;3.40;99.90;;;;;;5136706;27;20039;-75
2023/01/28 00:39:04;;;;;;;8.13;5.95;;;3.40;99.90;;;;;;5135736;27;20079;-74
2023/01/28 00:41:30;;;;;;;7.22;5.78;;;3.40;99.90;;;;;;5132738;27;20051;-74
2023/01/28 00:43:56;;;;;;;8.38;6.13;;;3.40;99.90;;;;;;5133740;27;20043;-74
2023/01/28 00:46:25;;;;;;;6.78;5.25;;;3.50;99.90;;;;;;5134558;27;20051;-74
2023/01/28 00:48:51;;;;;;;6.55;4.43;;;3.40;99.90;;;;;;5126633;27;20120;-74
2023/01/28 00:51:18;;;;;;;5.05;3.80;;;3.40;99.90;;;;;;5136463;27;20039;-75
2023/01/28 00:53:45;;;;;;;4.90;3.95;;;3.40;99.90;;;;;;5117541;27;20507;-74
2023/01/28 00:56:16;;;;;;;5.13;3.97;;;3.30;99.90;;;;;;5117904;27;20497;-74
2023/01/28 00:58:42;;;;;;;6.47;4.10;;;3.40;99.90;;;;;;5117915;27;20376;-74
2023/01/28 01:01:25;;;;;;;5.70;4.28;;;3.40;99.90;;;;;;5136123;27;20043;-75
2023/01/28 01:04:01;;;;;;;5.78;3.80;;;3.30;99.90;;;;;;5117208;27;20047;-75
2023/01/28 01:06:35;;;;;;;6.10;4.10;;;3.30;99.90;;;;;;5135101;27;20097;-74
2023/01/28 01:09:02;;;;;;;6.47;4.45;;;3.30;99.90;;;;;;5100481;27;20083;-74
2023/01/28 01:11:28;;;;;;;7.50;4.70;;;3.30;99.90;;;;;;5117509;27;20137;-75
2023/01/28 01:13:56;;;;;;;5.40;4.28;;;3.30;99.90;;;;;;5117349;27;20164;-75
2023/01/28 01:16:25;;;;;;;5.60;4.82;;;3.30;99.90;;;;;;5135550;27;20066;-74
2023/01/28 01:18:52;;;;;;;5.30;4.15;;;3.30;99.90;;;;;;5134102;27;20039;-74
2023/01/28 01:21:21;;;;;;;4.68;3.90;;;3.30;99.90;;;;;;5135230;27;20050;-74
2023/01/28 01:23:47;;;;;;;5.60;4.50;;;3.40;99.90;;;;;;5135506;27;20520;-75
2023/01/28 01:26:16;;;;;;;5.13;3.80;;;3.40;99.90;;;;;;5120441;27;20604;-74
2023/01/28 01:28:42;;;;;;;7.28;4.03;;;3.30;99.90;;;;;;5133992;27;20039;-75
2023/01/28 01:31:14;;;;;;;4.78;4.10;;;3.30;99.90;;;;;;5134157;27;20039;-74
2023/01/28 01:33:41;;;;;;;6.07;4.25;;;3.30;99.90;;;;;;5137450;27;20433;-74
2023/01/28 01:36:07;;;;;;;6.22;4.40;;;3.40;99.90;;;;;;5155471;27;20066;-74
2023/01/28 01:38:35;;;;;;;5.50;4.28;;;3.30;99.90;;;;;;5133873;27;20107;-75
2023/01/28 01:41:02;;;;;;;23.77;4.55;;;3.30;99.90;;;;;;5116834;27;20054;-74
2023/01/28 01:43:48;;;;;;;4.93;4.20;;;3.40;99.90;;;;;;5135204;27;20111;-75
2023/01/28 01:46:17;;;;;;;4.93;4.05;;;3.40;99.90;;;;;;5135332;27;20043;-74
2023/01/28 01:48:43;;;;;;;6.40;4.38;;;3.30;99.90;;;;;;5134779;27;20093;-74
2023/01/28 01:51:14;;;;;;;6.53;4.50;;;3.30;99.90;;;;;;5116296;27;20035;-74
2023/01/28 01:53:43;;;;;;;12.07;6.07;;;3.30;99.90;;;;;;5134762;27;20566;-74
2023/01/28 01:56:12;;;;;;;11.73;7.28;;;3.30;99.90;;;;;;5133932;27;20040;-74
2023/01/28 01:58:41;;;;;;;10.30;5.00;;;3.30;99.90;;;;;;5135116;27;20107;-74
2023/01/28 02:01:07;;;;;;;5.97;4.25;;;4.60;99.90;;;;;;5116227;27;20074;-74
2023/01/28 02:03:50;;;;;;;7.10;4.38;;;3.30;99.90;;;;;;5133839;27;20074;-75
2023/01/28 02:06:16;;;;;;;6.63;4.60;;;3.30;99.90;;;;;;5134523;27;20055;-74
2023/01/28 02:08:44;;;;;;;9.93;5.35;;;3.30;99.90;;;;;;5134892;27;20438;-74
2023/01/28 02:11:12;;;;;;;10.13;4.90;;;3.30;99.90;;;;;;5134654;27;20096;-74
2023/01/28 02:13:46;;;;;;;4.95;4.00;;;3.30;99.90;;;;;;5134459;27;20050;-74
2023/01/28 02:16:12;;;;;;;5.28;4.05;;;3.50;99.90;;;;;;5134258;27;20515;-74
2023/01/28 02:18:38;;;;;;;5.93;4.10;;;3.30;99.90;;;;;;5134479;27;20043;-74
2023/01/28 02:21:34;;;;;;;5.68;4.18;;;3.30;99.90;;;;;;5134468;27;20058;-75
2023/01/28 02:24:03;;;;;;;6.22;4.15;;;3.30;99.90;;;;;;5134280;27;20348;-74
2023/01/28 02:26:52;;;;;;;5.20;3.85;;;3.30;99.90;;;;;;5134315;27;20067;-75
2023/01/28 02:30:04;;;;;;;5.45;4.18;;;3.30;99.90;;;;;;5134167;27;20534;-74
2023/01/28 02:32:56;;;;;;;4.60;3.88;;;3.30;99.90;;;;;;5124204;27;20053;-74
2023/01/28 02:35:34;;;;;;;4.90;3.78;;;3.20;99.90;;;;;;5133887;27;20035;-74
2023/01/28 02:38:04;;;;;;;4.43;3.80;;;3.40;99.90;;;;;;5134231;27;20078;-74
2023/01/28 02:41:00;;;;;;;4.60;3.38;;;3.20;99.90;;;;;;5134392;27;20065;-74
2023/01/28 02:43:34;;;;;;;5.45;4.03;;;4.00;99.90;;;;;;5133834;27;20080;-74
2023/01/28 02:48:56;;;;;;;7.03;3.85;;;3.10;99.90;;;;;;5132952;27;20495;-74
2023/01/28 02:51:53;;;;;;;4.10;3.60;;;3.10;99.90;;;;;;5134272;27;20065;-74
2023/01/28 02:54:24;;;;;;;;;;;3.20;99.90;;;;;;5133967;27;20039;-74
2023/01/28 02:57:26;;;;;;;5.03;4.00;;;3.10;99.90;;;;;;5115652;27;19926;-74
2023/01/28 03:00:15;;;;;;;5.00;4.20;;;3.20;99.90;;;;;;5115380;27;20049;-74
2023/01/28 03:02:58;;;;;;;6.32;4.38;;;4.40;99.90;;;;;;5133235;27;20098;-74
2023/01/28 03:05:32;;;;;;;6.00;4.47;;;3.20;99.90;;;;;;5098070;27;20035;-75
2023/01/28 03:07:58;;;;;;;5.82;3.78;;;3.20;99.90;;;;;;5098138;27;20133;-74
2023/01/28 03:10:27;;;;;;;6.15;4.22;;;3.20;99.90;;;;;;5133536;27;20483;-74
2023/01/28 03:38:57;;;;;;;5.28;4.13;;;3.20;99.90;;;;;;5133431;28;19970;-74
2023/01/28 03:41:25;;;;;;;4.93;3.83;;;3.10;99.90;;;;;;5145447;27;20050;-74
2023/01/28 03:43:52;;;;;;;5.68;4.40;;;3.20;99.90;;;;;;5131942;28;20164;-74
2023/01/28 03:46:18;;;;;;;6.18;4.15;;;3.10;99.90;;;;;;5133103;28;20051;-74
2023/01/28 03:48:44;;;;;;;5.25;4.10;;;3.20;99.90;;;;;;5132926;28;20403;-74
2023/01/28 03:51:10;;;;;;;5.47;3.90;;;3.20;99.90;;;;;;5134176;27;20399;-74
2023/01/28 03:53:37;;;;;;;5.13;4.10;;;4.40;99.90;;;;;;5121813;28;20474;-74
2023/01/28 03:56:03;;;;;;;5.85;4.13;;;3.70;99.90;;;;;;5133656;27;20074;-74
2023/01/28 04:01:13;;;;;;;5.28;3.80;;;3.30;99.90;;;;;;5156515;27;20096;-74
2023/01/28 04:03:38;;;;;;;5.32;3.70;;;4.60;99.90;;;;;;5135907;27;20086;-74
2023/01/28 04:06:06;;;;;;;5.30;3.70;;;3.30;99.90;;;;;;5137034;27;20051;-74
2023/01/28 04:08:32;;;;;;;6.13;4.13;;;3.20;99.90;;;;;;5135781;27;20073;-74
2023/01/28 04:11:14;;;;;;;5.53;3.83;;;3.20;99.90;;;;;;5137015;27;20038;-74
2023/01/28 04:13:43;;;;;;;6.05;4.30;;;3.20;99.90;;;;;;5135650;27;20047;-74
2023/01/28 04:16:10;;;;;;;5.18;3.97;;;3.10;99.90;;;;;;5135622;27;20043;-74
2023/01/28 04:18:35;;;;;;;5.50;3.97;;;3.10;99.90;;;;;;5135690;27;20042;-75
2023/01/28 04:21:01;;;;;;;5.35;4.45;;;3.40;99.90;;;;;;5135476;27;20047;-74
2023/01/28 04:23:28;;;;;;;6.35;4.30;;;4.70;99.90;;;;;;5136749;27;20043;-74
2023/01/28 04:25:54;;;;;;;4.63;3.63;;;3.10;99.90;;;;;;5136596;27;20074;-74
2023/01/28 04:28:20;;;;;;;5.50;4.50;;;3.10;99.90;;;;;;5135644;27;20054;-74
2023/01/28 04:30:46;;;;;;;6.70;4.50;;;4.00;99.90;;;;;;5136025;27;20043;-74
2023/01/28 04:33:13;;;;;;;6.78;4.63;;;3.10;99.90;;;;;;5135226;27;20074;-74
2023/01/28 04:35:38;;;;;;;5.35;4.38;;;3.00;99.90;;;;;;5136515;27;20395;-74
2023/01/28 04:38:04;;;;;;;5.20;4.22;;;2.90;99.90;;;;;;5118182;27;20042;-75
2023/01/28 04:40:30;;;;;;;6.35;4.47;;;2.80;99.90;;;;;;5136181;27;20046;-74
2023/01/28 04:42:56;;;;;;;6.97;4.45;;;2.90;99.90;;;;;;5136325;27;20061;-74
2023/01/28 04:45:22;;;;;;;6.18;4.50;;;2.90;99.90;;;;;;5117622;27;20125;-74
2023/01/28 04:47:48;;;;;;;6.45;4.45;;;2.90;99.90;;;;;;5133199;27;20050;-74
2023/01/28 04:50:14;;;;;;;5.55;4.15;;;3.30;99.90;;;;;;5097530;28;20088;-74
2023/01/28 04:52:40;;;;;;;8.20;4.63;;;3.00;99.90;;;;;;5115574;28;20043;-75
2023/01/28 04:55:07;;;;;;;5.90;4.70;;;4.10;99.90;;;;;;5123644;27;20035;-74
2023/01/28 04:57:33;;;;;;;5.43;4.43;;;2.90;99.90;;;;;;5135958;27;20555;-74
2023/01/28 04:59:58;;;;;;;4.90;4.22;;;2.90;99.90;;;;;;5136094;27;20038;-74
2023/01/28 05:02:24;;;;;;;5.53;4.68;;;2.90;99.90;;;;;;5135815;27;20042;-74
2023/01/28 05:04:49;;;;;;;5.28;4.47;;;2.90;99.90;;;;;;5116997;27;20499;-74
2023/01/28 05:07:15;;;;;;;6.82;4.68;;;2.90;99.90;;;;;;5133975;27;20437;-75
2023/01/28 05:09:41;;;;;;;7.97;5.20;;;4.30;99.90;;;;;;5134082;27;20175;-74
2023/01/28 05:12:06;;;;;;;7.80;4.90;;;2.90;99.90;;;;;;5135487;27;20071;-74
2023/01/28 05:14:32;;;;;;;5.80;4.90;;;2.90;99.90;;;;;;5134450;27;20047;-75
2023/01/28 05:16:58;;;;;;;7.47;5.20;;;2.90;99.90;;;;;;5135883;27;20047;-74
2023/01/28 05:19:23;;;;;;;6.35;5.32;;;2.90;99.90;;;;;;5134154;27;20089;-74
2023/01/28 05:21:49;;;;;;;6.00;4.85;;;2.80;99.90;;;;;;5136040;27;20054;-74
2023/01/28 05:24:15;;;;;;;5.90;4.88;;;2.80;99.90;;;;;;5134122;27;20039;-74
2023/01/28 05:26:41;;;;;;;6.47;5.28;;;2.80;99.90;;;;;;5135431;27;20039;-75
2023/01/28 05:29:07;;;;;;;5.72;4.93;;;2.80;99.90;;;;;;5135511;27;20039;-74
2023/01/28 05:31:33;;;;;;;7.15;5.30;;;2.80;99.90;;;;;;5134525;27;20431;-74
2023/01/28 05:33:58;;;;;;;6.40;5.32;;;2.80;99.90;;;;;;5135124;27;20051;-74
2023/01/28 05:36:24;;;;;;;5.53;4.85;;;2.80;99.90;;;;;;5133873;27;20487;-74
2023/01/28 05:38:50;;;;;;;5.63;4.88;;;2.80;99.90;;;;;;5132379;27;20167;-74
2023/01/28 05:41:16;;;;;;;7.13;5.40;;;2.70;99.90;;;;;;5134245;27;20039;-74
2023/01/28 05:43:42;;;;;;;6.90;5.68;;;2.80;99.90;;;;;;5134031;27;20047;-74
2023/01/28 05:46:07;;;;;;;6.30;5.32;;;2.80;99.90;;;;;;5134943;27;20043;-74
2023/01/28 05:48:33;;;;;;;7.60;5.18;;;3.50;99.90;;;;;;5126026;27;20036;-74
2023/01/28 05:50:59;;;;;;;8.00;5.70;;;2.80;99.90;;;;;;5114552;28;20036;-74
2023/01/28 05:53:25;;;;;;;6.55;5.55;;;4.20;99.90;;;;;;5113066;28;20067;-75
2023/01/28 05:55:52;;;;;;;6.20;5.07;;;2.80;99.90;;;;;;5129194;27;20046;-74
2023/01/28 05:58:18;;;;;;;7.00;5.43;;;2.80;99.90;;;;;;5134962;27;20081;-74
2023/01/28 06:00:44;;;;;;;8.75;6.07;;;3.00;99.90;;;;;;5134900;27;20043;-74
2023/01/28 06:03:09;;;;;;;7.10;5.35;;;3.60;99.90;;;;;;5134826;27;20047;-74
2023/01/28 06:05:35;;;;;;;6.97;5.30;;;2.80;99.90;;;;;;5133231;27;20079;-74
2023/01/28 06:08:01;;;;;;;6.70;5.53;;;3.60;99.90;;;;;;5134541;27;20051;-74
2023/01/28 06:10:26;;;;;;;7.47;5.60;;;2.80;99.90;;;;;;5135375;27;20407;-74
2023/01/28 06:12:55;;;;;;;7.38;5.75;;;2.80;99.90;;;;;;5135948;27;20541;-74
2023/01/28 06:15:21;;;;;;;6.88;5.80;;;3.20;99.90;;;;;;5156652;27;20034;-75
2023/01/28 06:17:47;;;;;;;7.65;6.07;;;4.00;99.90;;;;;;5154944;27;20403;-74
2023/01/28 06:20:12;;;;;;;7.35;6.43;;;2.70;99.90;;;;;;5141259;27;20047;-74
2023/01/28 06:22:38;;;;;;;8.35;6.25;;;2.70;99.90;;;;;;5134319;27;20039;-74
2023/01/28 06:25:04;;;;;;;8.65;6.40;;;2.70;99.90;;;;;;5112880;28;20032;-74
2023/01/28 06:27:30;;;;;;;8.68;6.22;;;2.70;99.90;;;;;;5113744;28;20048;-74
2023/01/28 06:29:55;;;;;;;8.45;7.22;;;2.70;99.90;;;;;;5093970;28;20058;-74
2023/01/28 06:32:21;;;;;;;8.63;6.38;;;2.70;99.90;;;;;;5115046;28;20057;-74
2023/01/28 06:34:56;;;;;;;8.88;6.97;;;2.70;99.90;;;;;;5115386;28;20043;-74
2023/01/28 06:37:22;;;;;;;9.07;7.00;;;2.80;99.90;;;;;;5080060;28;20062;-75
2023/01/28 06:39:50;;;;;;;8.00;6.85;;;2.80;99.90;;;;;;5113891;28;20040;-74
2023/01/28 06:42:17;;;;;;;8.95;7.35;;;2.60;99.90;;;;;;5111291;28;20091;-74
2023/01/28 06:44:46;;;;;;;10.60;7.18;;;2.70;99.90;;;;;;5095954;28;20119;-74
2023/01/28 06:47:13;;;;;;;8.32;7.22;;;2.70;99.90;;;;;;5095806;28;20075;-74
2023/01/28 06:49:39;;;;;;;10.05;7.63;;;4.20;99.90;;;;;;5078228;28;20353;-74
2023/01/28 06:52:05;;;;;;;8.82;7.43;;;2.70;99.90;;;;;;5113887;28;20038;-74
2023/01/28 06:54:36;;;;;;;9.30;7.28;;;3.30;99.90;;;;;;5113356;28;20055;-74
2023/01/28 06:57:10;;;;;;;10.43;8.00;;;3.90;99.90;;;;;;5095899;28;20467;-75
2023/01/28 06:59:35;;;;;;;8.75;7.13;;;2.60;99.90;;;;;;5128589;27;20035;-75
2023/01/28 07:02:01;;;;;;;10.23;7.80;;;2.50;99.90;;;;;;5135528;27;20046;-73
2023/01/28 07:04:26;;;;;;;9.73;7.88;;;2.60;99.90;;;;;;5118209;27;20399;-76
2023/01/28 07:06:52;;;;;;;9.63;7.38;;;2.60;99.90;;;;;;5154228;27;20046;-80
2023/01/28 07:09:18;;;;;;;9.20;7.57;;;2.60;99.90;;;;;;5135216;27;20054;-80
2023/01/28 07:11:43;;;;;;;9.90;7.72;;;2.50;99.90;;;;;;5153349;27;20133;-80
2023/01/28 07:14:09;;;;;;;10.30;7.38;;;4.10;99.90;;;;;;5136069;27;20137;-80
2023/01/28 07:16:35;;;;;;;8.63;7.32;;;2.50;99.90;;;;;;5135687;27;20042;-80
2023/01/28 07:19:00;;;;;;;9.40;7.38;;;3.90;99.90;;;;;;5137499;27;20254;-80
2023/01/28 07:21:29;;;;;;;8.52;7.63;;;2.60;99.90;;;;;;5153930;27;20044;-81
2023/01/28 07:23:55;;;;;;;9.15;7.90;;;3.50;99.90;;;;;;5133165;27;20046;-80
2023/01/28 07:26:21;;;;;;;10.10;7.20;;;2.70;99.90;;;;;;5133929;27;20486;-80
2023/01/28 07:28:46;;;;;;;8.98;6.82;;;2.60;99.90;;;;;;5153433;27;20047;-81
2023/01/28 07:31:12;;;;;;;11.02;7.55;;;2.50;99.90;;;;;;5136880;27;20066;-80
2023/01/28 07:33:38;;;;;;;9.63;7.60;;;2.90;99.90;;;;;;5155126;27;20073;-80
2023/01/28 07:36:04;;;;;;;10.85;7.30;;;4.10;99.90;;;;;;5138275;27;20042;-80
2023/01/28 07:38:29;;;;;;;10.63;7.60;;;2.30;99.90;;;;;;5139881;27;20186;-80
2023/01/28 07:40:55;;;;;;;8.57;7.65;;;2.30;99.90;;;;;;5157925;27;20034;-80
2023/01/28 07:43:20;;;;;;;9.13;7.10;;;2.20;99.90;;;;;;5139924;27;20505;-80
2023/01/28 07:45:47;;;;;;;9.30;7.65;;;2.20;99.90;;;;;;5139684;27;20154;-80
2023/01/28 07:48:13;;;;;;;10.73;7.43;;;2.10;99.90;;;;;;5127419;27;20040;-80
2023/01/28 07:50:39;;;;;;;9.90;7.53;;;2.10;99.90;;;;;;5098319;28;20529;-80
2023/01/28 07:53:08;;;;;;;8.95;7.60;;;2.10;99.90;;;;;;5127900;27;20141;-80
2023/01/28 07:55:37;;;;;;;9.27;7.80;;;2.10;99.90;;;;;;5139555;27;20034;-80
2023/01/28 07:58:04;;;;;;;8.85;7.47;;;2.20;99.90;;;;;;5158442;27;20050;-81
2023/01/28 08:00:32;;;;;;;9.98;7.45;;;2.20;99.90;;;;;;5137706;27;20046;-81
2023/01/28 08:03:03;;;;;;;9.60;7.75;;;3.30;99.90;;;;;;5157040;27;20093;-80
2023/01/28 08:05:43;;;;;;;9.38;7.28;;;2.10;99.90;;;;;;5126942;27;20047;-80
2023/01/28 08:08:09;;;;;;;8.48;6.97;;;2.10;99.90;;;;;;5098296;28;20385;-81
2023/01/28 08:10:35;;;;;;;11.00;7.68;;;2.20;99.90;;;;;;5117754;27;20054;-80
2023/01/28 08:13:01;;;;;;;9.85;8.15;;;2.20;99.90;;;;;;5101468;27;20047;-80
2023/01/28 08:15:27;;;;;;;10.02;7.85;;;2.20;99.90;;;;;;5136924;27;20462;-81
2023/01/28 08:17:54;;;;;;;9.80;7.80;;;2.20;99.90;;;;;;5137703;27;20054;-80
2023/01/28 08:20:20;;;;;;;13.20;10.60;;;2.20;99.90;;;;;;5139224;27;20042;-80
2023/01/28 08:22:46;;;;;;;11.82;8.80;;;3.80;99.90;;;;;;5157458;27;20039;-79
2023/01/28 08:25:12;;;;;;;11.10;9.05;;;2.50;99.90;;;;;;5138683;27;20163;-80
2023/01/28 08:27:38;;;;;;;11.15;9.15;;;2.60;99.90;;;;;;5149052;27;20103;-80
2023/01/28 08:30:04;;;;;;;13.00;9.90;;;3.30;99.90;;;;;;5135341;27;20078;-79
2023/01/28 08:32:30;;;;;;;11.82;9.82;;;2.90;99.90;;;;;;5138658;27;20442;-80
2023/01/28 08:35:00;;;;;;;12.38;9.40;;;3.10;99.90;;;;;;5131253;27;20122;-80
2023/01/28 08:37:25;;;;;;;10.15;8.85;;;3.10;99.90;;;;;;5135250;27;20046;-80
2023/01/28 08:39:51;;;;;;;10.32;7.78;;;4.80;99.90;;;;;;5136443;27;20042;-80
2023/01/28 08:42:17;;;;;;;8.68;7.15;;;3.10;99.90;;;;;;5134687;27;20043;-80
2023/01/28 08:44:47;;;;;;;9.52;7.15;;;3.20;99.90;;;;;;5137735;27;20084;-81
2023/01/28 08:47:21;;;;;;;8.55;6.82;;;3.20;99.90;;;;;;5118140;27;20414;-80
2023/01/28 08:49:47;;;;;;;8.02;7.05;;;3.90;99.90;;;;;;5099896;27;20083;-80
2023/01/28 08:52:12;;;;;;;10.02;7.15;;;4.60;99.90;;;;;;5134869;27;20521;-80
2023/01/28 08:54:38;;;;;;;9.13;6.63;;;1.70;99.90;;;;;;5137548;27;20495;-80
2023/01/28 08:57:04;;;;;;;7.82;6.65;;;2.80;99.90;;;;;;5147655;27;20181;-80
2023/01/28 08:59:29;;;;;;;7.65;6.03;;;5.30;99.90;;;;;;5135868;27;20040;-80
2023/01/28 09:01:58;;;;;;;9.48;7.00;;;3.60;99.90;;;;;;5117470;27;20049;-80
2023/01/28 09:04:23;;;;;;;8.27;6.40;;;3.90;99.90;;;;;;5134772;27;20035;-80
2023/01/28 09:06:49;;;;;;;7.32;6.10;;;5.90;99.90;;;;;;5136532;27;20074;-80
2023/01/28 09:09:14;;;;;;;7.88;6.10;;;6.20;99.90;;;;;;5134648;27;20039;-80
2023/01/28 09:11:40;;;;;;;9.98;6.72;;;7.30;99.90;;;;;;5152104;27;20122;-80
2023/01/28 09:14:06;;;;;;;6.63;5.88;;;7.20;99.90;;;;;;5137362;27;20156;-80
2023/01/28 09:16:32;;;;;;;6.93;5.40;;;6.90;99.90;;;;;;5156371;27;20038;-80
2023/01/28 09:18:58;;;;;;;6.95;5.75;;;8.30;99.90;;;;;;5137386;27;20054;-79
2023/01/28 09:21:26;;;;;;;6.50;5.18;;;8.20;99.90;;;;;;5140581;27;20039;-80
2023/01/28 09:23:54;;;;;;;7.60;5.53;;;;;;;;;;5119835;27;20039;-80
2023/01/28 09:26:20;;;;;;;8.25;6.75;;;;;;;;;;5137910;27;20049;-77
2023/01/28 09:28:47;;;;;;;7.88;6.60;;;;;;;;;;5137126;27;20049;-78
2023/01/28 09:31:13;;;;;;;6.80;6.00;;;;;;;;;;5137190;27;20398;-77
2023/01/28 09:33:39;;;;;;;6.45;5.10;;;;;;;;;;5147110;27;20070;-75
2023/01/28 09:36:07;;;;;;;6.30;5.10;;;;;;;;;;5114610;28;20144;-73
2023/01/28 09:38:36;;;;;;;5.82;4.80;;;;;;;;;;5114875;28;20118;-75
2023/01/28 09:41:03;;;;;;;6.22;5.07;;;;;;;;;;5098954;27;20084;-75
2023/01/28 09:43:35;;;;;;;5.93;4.97;;;;;;;;;;5109953;27;20046;-75
2023/01/28 09:46:04;;;;;;;8.32;5.25;;;;;;;;;;5127567;27;20043;-75
2023/01/28 09:48:37;;;;;;;5.57;4.85;;;;;;;;;;5126491;27;20093;-75
2023/01/28 09:51:06;;;;;;;7.45;5.20;;;;;;;;;;5121316;27;20159;-76
2023/01/28 09:53:38;;;;;;;5.65;4.88;;;;;;;;;;5138951;27;20073;-77
2023/01/28 09:56:19;;;;;;;7.35;4.95;;;;;;;;;;5137003;27;20435;-76
2023/01/28 09:58:45;;;;;;;5.38;4.63;;;;;;;;;;5136666;27;20499;-76
2023/01/28 10:01:11;;;;;;;5.78;4.47;;;;;;;;;;5136582;27;20122;-75
2023/01/28 10:03:56;;;;;;;6.25;4.68;;;;;;;;;;5095456;28;20118;-76
2023/01/28 10:06:25;;;;;;;6.97;4.78;;;;;;;;;;5129199;27;20047;-81
2023/01/28 10:09:10;;;;;;;6.70;4.55;;;;;;;;;;5136530;27;20043;-81
2023/01/28 10:11:48;;;;;;;7.57;5.07;;;;;;;;;;5119851;27;20440;-78
2023/01/28 10:14:23;;;;;;;7.05;4.80;;;;;;;;;;5122913;27;20083;-78
2023/01/28 10:17:06;;;;;;;6.55;4.85;;;;;;;;;;5136789;27;20046;-78
2023/01/28 10:19:40;;;;;;;7.00;5.65;;;;;;;;;;5095269;28;20051;-81
2023/01/28 10:22:14;;;;;;;7.70;5.22;;;;;;;;;;5129366;27;20039;-78
2023/01/28 10:24:43;;;;;;;6.55;4.80;;;;;;;;;;5119311;27;20039;-78
2023/01/28 10:27:29;;;;;;;10.80;5.15;;;;;;;;;;5134675;27;20352;-80
2023/01/28 10:29:55;;;;;;;;;;;;;;;;;;5115816;27;20050;-78
2023/01/28 10:32:35;;;;;;;5.88;4.95;;;;;;;;;;5124350;27;19922;-78
2023/01/28 10:35:02;;;;;;;6.80;4.40;;;;;;;;;;5135785;27;20056;-78
2023/01/28 10:37:29;;;;;;;5.35;4.35;;;;;;;;;;5131071;27;20055;-78
2023/01/28 10:39:56;;;;;;;6.65;4.65;;;;;;;;;;5130675;27;20078;-78
2023/01/28 10:42:31;;;;;;;6.75;5.05;;;;;;;;;;5133249;27;20074;-79
2023/01/28 10:45:00;;;;;;;6.95;5.30;;;;;;;;;;5133795;27;20047;-79
2023/01/28 10:47:40;;;;;;;9.20;5.20;;;;;;;;;;5133441;27;20054;-79
2023/01/28 10:50:10;;;;;;;7.43;5.00;;;;;;;;;;5149238;27;20042;-79
2023/01/28 10:52:36;;;;;;;9.70;4.93;;;;;;;;;;5134172;27;20437;-78
2023/01/28 10:55:06;;;;;;;6.00;4.90;;;;;;;;;;5135860;27;20176;-79
2023/01/28 10:57:40;;;;;;;6.50;4.75;;;;;;;;;;5135363;27;20059;-79
2023/01/28 11:00:22;;;;;;;8.15;4.95;;;;;;;;;;5152458;27;20125;-79
2023/01/28 11:02:49;;;;;;;9.82;5.10;;;;;;;;;;5135349;27;20043;-78
2023/01/28 11:05:17;;;;;;;7.55;5.07;;;;;;;;;;5134963;27;20041;-79
2023/01/28 11:07:43;;;;;;;9.05;5.22;;;;;;;;;;5143464;27;20119;-79
2023/01/28 11:10:39;;;;;;;8.48;5.45;;;;;;;;;;5133032;27;20458;-79
2023/01/28 11:13:06;;;;;;;9.93;5.70;;;;;;;;;;5124426;27;20392;-79
2023/01/28 11:15:32;;;;;;;9.85;5.82;;;;;;;;;;5132903;27;20046;-79
2023/01/28 11:18:02;;;;;;;10.55;6.05;;;8.90;99.90;;;;;;5132116;27;20031;-79
2023/01/28 11:20:39;;;;;;;6.53;5.00;;;9.90;99.90;;;;;;5133569;27;20047;-80
2023/01/28 11:23:05;;;;;;;8.63;5.97;;;9.30;99.90;;;;;;5153166;27;20038;-79
2023/01/28 11:25:33;;;;;;;8.00;6.07;;;9.00;99.90;;;;;;5134056;27;20091;-75
2023/01/28 11:28:01;;;;;;;8.38;6.00;;;8.80;99.90;;;;;;5139433;27;20070;-76
2023/01/28 11:30:33;;;;;;;9.00;5.88;;;9.70;99.90;;;;;;5114331;28;20035;-78
2023/01/28 11:33:16;;;;;;;8.35;6.38;;;8.50;99.90;;;;;;5132762;28;20051;-77
2023/01/28 11:35:55;;;;;;;7.07;5.75;;;8.40;99.90;;;;;;5093549;28;20048;-80
2023/01/28 11:38:23;;;;;;;6.90;5.13;;;8.40;99.90;;;;;;5133423;28;20130;-80
2023/01/28 11:40:55;;;;;;;13.07;5.75;;;8.30;99.90;;;;;;5097910;28;20065;-80
2023/01/28 11:43:27;;;;;;;7.28;6.00;;;8.10;99.90;;;;;;5114062;28;20035;-80
2023/01/28 11:46:07;;;;;;;7.80;5.25;;;8.90;99.90;;;;;;5130956;28;20419;-79
2023/01/28 11:49:09;;;;;;;7.68;6.13;;;8.10;99.90;;;;;;5105635;28;20131;-80
2023/01/28 11:52:09;;;;;;;10.02;6.10;;;8.00;99.90;;;;;;5076694;28;20043;-80
2023/01/28 11:54:38;;;;;;;8.02;5.82;;;7.90;99.90;;;;;;5101529;28;20092;-79
2023/01/28 11:57:13;;;;;;;12.48;6.38;;;7.90;99.90;;;;;;5112241;28;20032;-80
2023/01/28 11:59:42;;;;;;;10.20;6.55;;;9.20;99.90;;;;;;5077569;28;20456;-79
2023/01/28 12:02:27;;;;;;;8.80;5.88;;;8.20;99.90;;;;;;5077227;28;20036;-80
2023/01/28 12:05:16;;;;;;;10.48;6.80;;;8.80;99.90;;;;;;5112088;28;20071;-80
2023/01/28 12:07:50;;;;;;;7.35;5.90;;;7.60;99.90;;;;;;5111787;28;20059;-79
2023/01/28 12:10:24;;;;;;;9.95;6.28;;;7.60;99.90;;;;;;5076835;28;20055;-80
2023/01/28 12:13:04;;;;;;;11.13;6.13;;;7.50;99.90;;;;;;5093852;28;20048;-80
2023/01/28 12:15:46;;;;;;;7.53;5.72;;;7.40;99.90;;;;;;5112573;28;20044;-80
2023/01/28 12:18:24;;;;;;;9.02;6.18;;;7.20;99.90;;;;;;5112548;28;20421;-80
2023/01/28 12:21:01;;;;;;;8.43;6.07;;;7.10;99.90;;;;;;5094898;28;20051;-80
2023/01/28 12:23:53;;;;;;;9.65;6.82;;;7.10;99.90;;;;;;5097655;28;20083;-80
2023/01/28 12:27:09;;;;;;;9.70;6.47;;;7.20;99.90;;;;;;5081010;28;20044;-80
2023/01/28 12:29:54;;;;;;;7.47;5.68;;;7.50;99.90;;;;;;5101952;28;20411;-80
2023/01/28 12:32:39;;;;;;;10.10;6.20;;;;;;;;;;5080791;28;20054;-80
2023/01/28 12:35:11;;;;;;;7.40;5.75;;;;;;;;;;5115847;28;20395;-79
2023/01/28 12:37:52;;;;;;;7.88;5.00;;;;;;;;;;5115999;28;20040;-79
2023/01/28 12:40:47;;;;;;;7.35;5.47;;;;;;;;;;5095639;28;20043;-80
2023/01/28 12:43:16;;;;;;;10.93;5.90;;;;;;;;;;5084557;28;20060;-80
2023/01/28 12:45:52;;;;;;;7.82;5.57;;;8.00;99.90;;;;;;5115698;28;20047;-79
2023/01/28 12:48:34;;;;;;;8.85;5.68;;;20.10;89.90;;;;;;5088894;27;20085;-80
2023/01/28 12:51:13;;;;;;;7.75;5.80;;;20.50;85.00;;;;;;5115061;27;20050;-79
2023/01/28 12:53:38;;;;;;;7.35;5.20;;;21.00;81.80;;;;;;5135123;27;20047;-80
2023/01/28 12:56:14;;;;;;;6.95;5.38;;;21.60;78.70;;;;;;5100737;27;20043;-80
2023/01/28 12:59:03;;;;;;;6.68;5.53;;;22.30;76.50;;;;;;5117568;27;20125;-80
2023/01/28 13:01:56;;;;;;;6.75;5.90;;;22.50;73.40;;;;;;5117684;27;20122;-79
2023/01/28 13:04:42;;;;;;;7.22;5.80;;;22.50;72.30;;;;;;5117597;27;20039;-79
2023/01/28 13:07:11;;;;;;;7.45;6.22;;;22.10;72.70;;;;;;5135685;27;20466;-80
2023/01/28 13:09:48;;;;;;;9.50;5.80;;;21.50;71.70;;;;;;5117040;27;20130;-80
2023/01/28 13:12:15;;;;;;;7.93;5.40;;;;;;;;;;5136138;27;20085;-79
2023/01/28 13:14:41;;;;;;;9.15;5.55;;;;;;;;;;5135428;27;20043;-80
2023/01/28 13:17:11;;;;;;;6.72;5.18;;;;;;;;;;5135788;27;20453;-79
2023/01/28 13:19:38;;;;;;;9.13;5.72;;;;;;;;;;5135117;27;20088;-79
2023/01/28 13:22:12;;;;;;;10.48;5.90;;;;;;;;;;5117140;27;20092;-79
2023/01/28 13:24:38;;;;;;;7.35;5.28;;;;;;;;;;5142688;27;20039;-80
2023/01/28 13:27:11;;;;;;;7.80;5.03;;;;;;;;;;5137623;27;20195;-79
2023/01/28 13:29:37;;;;;;;6.40;5.05;;;;;;;;;;5135685;27;20047;-79
2023/01/28 13:32:23;;;;;;;9.18;5.72;;;;;;;;;;5136607;27;20403;-79
2023/01/28 13:34:56;;;;;;;9.38;5.32;;;;;;;;;;5155506;27;20081;-80
2023/01/28 13:37:37;;;;;;;9.43;5.30;;;20.60;72.20;;;;;;5137346;27;20043;-80
2023/01/28 13:40:05;;;;;;;10.45;6.20;;;10.40;98.60;;;;;;5155861;27;20117;-80
2023/01/28 13:42:31;;;;;;;9.68;5.63;;;9.80;99.90;;;;;;5119930;27;20039;-80
2023/01/28 13:45:15;;;;;;;9.35;5.47;;;9.50;99.90;;;;;;5145274;27;20574;-78
2023/01/28 13:47:48;;;;;;;9.80;5.85;;;9.20;99.90;;;;;;5138658;27;20407;-77
2023/01/28 13:50:36;;;;;;;9.02;5.97;;;9.10;99.90;;;;;;5115317;27;20035;-76
2023/01/28 13:53:47;;;;;;;9.55;6.30;;;8.80;99.90;;;;;;5117447;27;20119;-75
2023/01/28 13:56:24;;;;;;;7.63;5.50;;;8.60;99.90;;;;;;5100928;27;20035;-75
2023/01/28 13:59:11;;;;;;;8.45;5.43;;;9.00;99.90;;;;;;5114740;27;20141;-80
2023/01/28 14:02:13;;;;;;;9.70;5.65;;;8.60;99.90;;;;;;5102445;27;20112;-76